Maersk Iowa — KABL — position and weather

sailwx.info

Track history (hours):
 
Tides and Currents Weather Stations Pressure Air Temp Water Temp Dewpoint Dewpoint Depression Visibility Wind Speed Wind Dir Waves Ship Positions

Maersk Iowa

Owner: FARRELL LINES INC, Norfolk, VA. More information available from US FCC via Universal Licensing System and Coast Guard Vessel Documentation Center.

Last reported at 2015-Aug-31 01:29 UTC. Time now 2015-Aug-31 21:50 UTC.
Position N 29°30' W 094°52'.

Length 292 m; draft 10.6 m.

Type: Ship (hazmat cat A). MMSI: 367606000.

Date/timePositionNaut miles runAvg speedWind from/ knotsBaromVisibWave heightAir tempDewpointWater temp
2015-Aug-31 01:29N 29°30' W 094°52'1010.5
2015-Aug-31 00:33N 29°37' W 094°59'1 1.1
2015-Aug-30 23:32N 29°37' W 095°00'0 0.0
2015-Aug-30 22:32N 29°37' W 095°00'0 0.0
2015-Aug-30 21:33N 29°37' W 095°00'0 0.0
2015-Aug-30 20:32N 29°37' W 095°00'0 0.0
2015-Aug-30 19:32N 29°37' W 095°00'0 0.0
2015-Aug-30 18:32N 29°37' W 095°00'0 0.0
2015-Aug-30 17:32N 29°37' W 095°00'0 0.0
2015-Aug-30 16:32N 29°37' W 095°00'0 0.0
2015-Aug-30 15:29N 29°37' W 095°00'0 0.0
2015-Aug-30 14:32N 29°37' W 095°00'0 0.0
2015-Aug-30 13:32N 29°37' W 095°00'0 0.0
2015-Aug-30 12:32N 29°37' W 095°00'0 0.0
2015-Aug-30 11:32N 29°37' W 095°00'0 0.0
2015-Aug-30 10:32N 29°37' W 095°00'0 0.0
2015-Aug-30 09:32N 29°37' W 095°00'0 0.0
2015-Aug-30 08:33N 29°37' W 095°00'0 0.0
2015-Aug-30 07:33N 29°37' W 095°00'0 0.0
2015-Aug-30 06:33N 29°37' W 095°00'0 0.0
2015-Aug-30 05:33N 29°37' W 095°00'0 0.0
2015-Aug-30 04:33N 29°37' W 095°00'0 0.0
2015-Aug-30 03:33N 29°37' W 095°00'0 0.0
2015-Aug-30 02:33N 29°37' W 095°00'0 0.0
2015-Aug-30 01:33N 29°37' W 095°00'0 0.0
2015-Aug-30 00:33N 29°37' W 095°00'0 0.0
2015-Aug-29 23:33N 29°37' W 095°00'0 0.0
2015-Aug-29 22:33N 29°37' W 095°00'0 0.0
2015-Aug-29 21:33N 29°37' W 095°00'0 0.0
2015-Aug-29 20:33N 29°37' W 095°00'0 0.3
2015-Aug-29 19:34N 29°37' W 095°00'9 9.1
2015-Aug-29 18:34N 29°31' W 094°53'  
2015-Aug-27 10:24N 25°23' W 080°02'1618.8
2015-Aug-27 09:33N 25°38' W 080°02'10 9.4
2015-Aug-27 08:33N 25°46' W 080°09'1 0.5
2015-Aug-27 07:34N 25°46' W 080°09'0 0.0
2015-Aug-27 06:34N 25°46' W 080°09'0 0.0
2015-Aug-27 05:32N 25°46' W 080°09'0 0.0
2015-Aug-27 04:31N 25°46' W 080°09'0 0.0
2015-Aug-27 03:32N 25°46' W 080°09'0 0.0
2015-Aug-27 02:31N 25°46' W 080°09'0 0.0
2015-Aug-27 01:31N 25°46' W 080°09'0 0.0
2015-Aug-27 00:31N 25°46' W 080°09'0 0.0
2015-Aug-26 23:32N 25°46' W 080°09'0 0.0
2015-Aug-26 22:31N 25°46' W 080°09'0 0.0
2015-Aug-26 21:31N 25°46' W 080°09'1 0.7
2015-Aug-26 20:31N 25°46' W 080°08'6 6.2
2015-Aug-26 19:34N 25°48' W 080°02'8 8.1
2015-Aug-26 18:34N 25°56' W 080°02'1110.8
2015-Aug-26 17:34N 26°07' W 080°01'1111.0
2015-Aug-26 16:34N 26°18' W 080°00'1111.3
2015-Aug-26 15:34N 26°29' W 079°60'1111.1
2015-Aug-26 14:33N 26°40' W 079°59'1110.7
2015-Aug-26 13:32N 26°51' W 079°59'10 9.8
2015-Aug-26 12:34N 27°01' W 079°58'24613.2
2015-Aug-25 18:00N 31°06' W 079°42'   230 / 161013.110.8 1.029.521.531.0
2015-Aug-21 06:00N 39°30' W 062°36'   120 / 151021.010.8 1.027.022.6
Track history (hours):
 
Tides and Currents Weather Stations Pressure Air Temp Water Temp Dewpoint Dewpoint Depression Visibility Wind Speed Wind Dir Waves Ship Positions

Maersk Iowa

Owner: FARRELL LINES INC, Norfolk, VA. More information available from US FCC via Universal Licensing System and Coast Guard Vessel Documentation Center.

Last reported at 2015-Aug-31 01:29 UTC. Time now 2015-Aug-31 21:50 UTC.
Position N 29°30' W 094°52'.

Length 292 m; draft 10.6 m.

Type: Ship (hazmat cat A). MMSI: 367606000.

Date/timePositionNaut miles runAvg speedWind from/ knotsBaromVisibWave heightAir tempDewpointWater temp
2015-Aug-31 01:29N 29°30' W 094°52'1010.5
2015-Aug-31 00:33N 29°37' W 094°59'1 1.1
2015-Aug-30 23:32N 29°37' W 095°00'0 0.0
2015-Aug-30 22:32N 29°37' W 095°00'0 0.0
2015-Aug-30 21:33N 29°37' W 095°00'0 0.0
2015-Aug-30 20:32N 29°37' W 095°00'0 0.0
2015-Aug-30 19:32N 29°37' W 095°00'0 0.0
2015-Aug-30 18:32N 29°37' W 095°00'0 0.0
2015-Aug-30 17:32N 29°37' W 095°00'0 0.0
2015-Aug-30 16:32N 29°37' W 095°00'0 0.0
2015-Aug-30 15:29N 29°37' W 095°00'0 0.0
2015-Aug-30 14:32N 29°37' W 095°00'0 0.0
2015-Aug-30 13:32N 29°37' W 095°00'0 0.0
2015-Aug-30 12:32N 29°37' W 095°00'0 0.0
2015-Aug-30 11:32N 29°37' W 095°00'0 0.0
2015-Aug-30 10:32N 29°37' W 095°00'0 0.0
2015-Aug-30 09:32N 29°37' W 095°00'0 0.0
2015-Aug-30 08:33N 29°37' W 095°00'0 0.0
2015-Aug-30 07:33N 29°37' W 095°00'0 0.0
2015-Aug-30 06:33N 29°37' W 095°00'0 0.0
2015-Aug-30 05:33N 29°37' W 095°00'0 0.0
2015-Aug-30 04:33N 29°37' W 095°00'0 0.0
2015-Aug-30 03:33N 29°37' W 095°00'0 0.0
2015-Aug-30 02:33N 29°37' W 095°00'0 0.0
2015-Aug-30 01:33N 29°37' W 095°00'0 0.0
2015-Aug-30 00:33N 29°37' W 095°00'0 0.0
2015-Aug-29 23:33N 29°37' W 095°00'0 0.0
2015-Aug-29 22:33N 29°37' W 095°00'0 0.0
2015-Aug-29 21:33N 29°37' W 095°00'0 0.0
2015-Aug-29 20:33N 29°37' W 095°00'0 0.3
2015-Aug-29 19:34N 29°37' W 095°00'9 9.1
2015-Aug-29 18:34N 29°31' W 094°53'  
2015-Aug-27 10:24N 25°23' W 080°02'1618.8
2015-Aug-27 09:33N 25°38' W 080°02'10 9.4
2015-Aug-27 08:33N 25°46' W 080°09'1 0.5
2015-Aug-27 07:34N 25°46' W 080°09'0 0.0
2015-Aug-27 06:34N 25°46' W 080°09'0 0.0
2015-Aug-27 05:32N 25°46' W 080°09'0 0.0
2015-Aug-27 04:31N 25°46' W 080°09'0 0.0
2015-Aug-27 03:32N 25°46' W 080°09'0 0.0
2015-Aug-27 02:31N 25°46' W 080°09'0 0.0
2015-Aug-27 01:31N 25°46' W 080°09'0 0.0
2015-Aug-27 00:31N 25°46' W 080°09'0 0.0
2015-Aug-26 23:32N 25°46' W 080°09'0 0.0
2015-Aug-26 22:31N 25°46' W 080°09'0 0.0
2015-Aug-26 21:31N 25°46' W 080°09'1 0.7
2015-Aug-26 20:31N 25°46' W 080°08'6 6.2
2015-Aug-26 19:34N 25°48' W 080°02'8 8.1
2015-Aug-26 18:34N 25°56' W 080°02'1110.8
2015-Aug-26 17:34N 26°07' W 080°01'1111.0
2015-Aug-26 16:34N 26°18' W 080°00'1111.3
2015-Aug-26 15:34N 26°29' W 079°60'1111.1
2015-Aug-26 14:33N 26°40' W 079°59'1110.7
2015-Aug-26 13:32N 26°51' W 079°59'10 9.8
2015-Aug-26 12:34N 27°01' W 079°58'24613.2
2015-Aug-25 18:00N 31°06' W 079°42'   230 / 161013.110.8 1.029.521.531.0
2015-Aug-21 06:00N 39°30' W 062°36'   120 / 151021.010.8 1.027.022.6

Dump ship's entire track history